sensor_id;sensor_type;location;lat;lon;timestamp;pressure;altitude;pressure_sealevel;temperature;humidity
43217;BME280;60511;42.686;23.300;2023-04-03T00:01:02;94106.59;;;23.26;28.11
43217;BME280;60511;42.686;23.300;2023-04-03T00:03:03;94048.19;;;22.91;28.48
43217;BME280;60511;42.686;23.300;2023-04-03T00:05:03;94095.44;;;23.27;28.78
43217;BME280;60511;42.686;23.300;2023-04-03T00:07:04;94087.69;;;23.26;28.83
43217;BME280;60511;42.686;23.300;2023-04-03T00:09:05;94084.97;;;23.26;28.91
43217;BME280;60511;42.686;23.300;2023-04-03T00:11:06;94092.31;;;23.25;28.65
43217;BME280;60511;42.686;23.300;2023-04-03T00:13:07;94026.19;;;22.89;28.72
43217;BME280;60511;42.686;23.300;2023-04-03T00:15:08;93968.22;;;22.53;28.49
43217;BME280;60511;42.686;23.300;2023-04-03T00:17:08;94040.28;;;23.02;28.75
43217;BME280;60511;42.686;23.300;2023-04-03T00:19:08;94091.56;;;23.29;28.65
43217;BME280;60511;42.686;23.300;2023-04-03T00:21:13;94069.97;;;23.29;28.51
43217;BME280;60511;42.686;23.300;2023-04-03T00:23:13;94020.13;;;22.96;28.50
43217;BME280;60511;42.686;23.300;2023-04-03T00:25:14;94053.56;;;23.14;28.48
43217;BME280;60511;42.686;23.300;2023-04-03T00:27:14;94073.41;;;23.25;28.52
43217;BME280;60511;42.686;23.300;2023-04-03T00:29:15;94080.72;;;23.25;28.43
43217;BME280;60511;42.686;23.300;2023-04-03T00:31:16;94074.19;;;23.26;28.61
43217;BME280;60511;42.686;23.300;2023-04-03T00:33:16;94081.50;;;23.25;28.61
43217;BME280;60511;42.686;23.300;2023-04-03T00:35:18;94048.44;;;23.05;28.63
43217;BME280;60511;42.686;23.300;2023-04-03T00:37:19;94068.94;;;23.10;28.56
43217;BME280;60511;42.686;23.300;2023-04-03T00:39:20;94012.56;;;22.78;28.27
43217;BME280;60511;42.686;23.300;2023-04-03T00:41:20;94095.72;;;23.22;28.39
43217;BME280;60511;42.686;23.300;2023-04-03T00:43:23;94087.63;;;23.22;28.56
43217;BME280;60511;42.686;23.300;2023-04-03T00:45:32;94077.25;;;23.24;28.36
43217;BME280;60511;42.686;23.300;2023-04-03T00:47:33;94084.91;;;23.22;28.50
43217;BME280;60511;42.686;23.300;2023-04-03T00:49:34;94082.59;;;23.21;28.53
43217;BME280;60511;42.686;23.300;2023-04-03T00:51:35;94078.75;;;23.22;28.56
43217;BME280;60511;42.686;23.300;2023-04-03T00:53:40;94084.50;;;23.20;28.51
43217;BME280;60511;42.686;23.300;2023-04-03T00:55:42;94087.97;;;23.21;28.77
43217;BME280;60511;42.686;23.300;2023-04-03T00:57:44;94040.41;;;22.86;28.92
43217;BME280;60511;42.686;23.300;2023-04-03T00:59:49;94017.84;;;22.71;28.63
43217;BME280;60511;42.686;23.300;2023-04-03T01:01:51;94063.81;;;23.01;28.80
43217;BME280;60511;42.686;23.300;2023-04-03T01:03:52;94088.16;;;23.05;28.73
43217;BME280;60511;42.686;23.300;2023-04-03T01:05:53;94103.34;;;23.17;28.72
43217;BME280;60511;42.686;23.300;2023-04-03T01:07:53;94094.91;;;23.18;28.60
43217;BME280;60511;42.686;23.300;2023-04-03T01:09:58;94017.00;;;22.67;28.64
43217;BME280;60511;42.686;23.300;2023-04-03T01:12:24;94087.56;;;23.19;28.75
43217;BME280;60511;42.686;23.300;2023-04-03T01:14:26;94049.31;;;22.90;28.65
43217;BME280;60511;42.686;23.300;2023-04-03T01:16:26;94094.91;;;23.18;28.59
43217;BME280;60511;42.686;23.300;2023-04-03T01:18:28;94080.84;;;23.05;28.70
43217;BME280;60511;42.686;23.300;2023-04-03T01:24:42;94084.84;;;23.15;28.70
43217;BME280;60511;42.686;23.300;2023-04-03T01:26:43;94099.47;;;23.14;28.87
43217;BME280;60511;42.686;23.300;2023-04-03T01:28:43;94077.38;;;23.09;28.96
43217;BME280;60511;42.686;23.300;2023-04-03T01:30:53;94094.06;;;23.14;28.69
43217;BME280;60511;42.686;23.300;2023-04-03T01:32:57;94090.94;;;23.12;28.41
43217;BME280;60511;42.686;23.300;2023-04-03T01:34:57;94064.88;;;22.97;28.63
43217;BME280;60511;42.686;23.300;2023-04-03T01:36:58;94073.00;;;23.00;28.47
43217;BME280;60511;42.686;23.300;2023-04-03T01:38:59;94094.00;;;23.11;29.39
43217;BME280;60511;42.686;23.300;2023-04-03T01:41:00;94055.88;;;22.89;28.85
43217;BME280;60511;42.686;23.300;2023-04-03T01:43:01;94068.28;;;22.94;29.07
43217;BME280;60511;42.686;23.300;2023-04-03T01:45:01;94017.75;;;22.64;28.96
43217;BME280;60511;42.686;23.300;2023-04-03T01:47:02;94026.69;;;22.72;29.04
43217;BME280;60511;42.686;23.300;2023-04-03T01:49:05;94047.03;;;22.92;28.90
43217;BME280;60511;42.686;23.300;2023-04-03T01:51:05;93917.34;;;22.01;29.11
43217;BME280;60511;42.686;23.300;2023-04-03T01:53:06;94008.00;;;22.59;28.97
43217;BME280;60511;42.686;23.300;2023-04-03T01:55:07;94052.75;;;22.87;29.05
43217;BME280;60511;42.686;23.300;2023-04-03T01:57:07;94100.97;;;23.12;29.07
43217;BME280;60511;42.686;23.300;2023-04-03T01:59:08;94051.09;;;22.79;28.76
43217;BME280;60511;42.686;23.300;2023-04-03T02:01:08;94066.81;;;23.00;29.05
43217;BME280;60511;42.686;23.300;2023-04-03T02:03:09;94101.31;;;23.10;28.74
43217;BME280;60511;42.686;23.300;2023-04-03T02:05:09;94050.06;;;22.87;29.11
43217;BME280;60511;42.686;23.300;2023-04-03T02:07:10;94075.25;;;22.95;28.67
43217;BME280;60511;42.686;23.300;2023-04-03T02:09:11;94085.50;;;23.09;28.69
43217;BME280;60511;42.686;23.300;2023-04-03T02:11:11;94089.69;;;23.06;29.20
43217;BME280;60511;42.686;23.300;2023-04-03T02:13:11;94087.78;;;23.06;29.04
43217;BME280;60511;42.686;23.300;2023-04-03T02:15:12;94092.41;;;23.06;28.98
43217;BME280;60511;42.686;23.300;2023-04-03T02:17:12;94050.75;;;22.80;29.08
43217;BME280;60511;42.686;23.300;2023-04-03T02:19:12;94093.97;;;23.07;28.98
43217;BME280;60511;42.686;23.300;2023-04-03T02:21:13;94094.59;;;23.00;29.09
43217;BME280;60511;42.686;23.300;2023-04-03T02:23:13;93981.00;;;22.33;28.99
43217;BME280;60511;42.686;23.300;2023-04-03T02:25:14;94000.25;;;22.54;28.89
43217;BME280;60511;42.686;23.300;2023-04-03T02:27:14;94005.31;;;22.59;28.88
43217;BME280;60511;42.686;23.300;2023-04-03T02:29:16;94017.00;;;22.67;28.91
43217;BME280;60511;42.686;23.300;2023-04-03T02:31:17;94070.81;;;23.06;28.89
43217;BME280;60511;42.686;23.300;2023-04-03T02:33:17;94045.75;;;22.82;28.80
43217;BME280;60511;42.686;23.300;2023-04-03T02:35:18;94043.50;;;22.88;28.84
43217;BME280;60511;42.686;23.300;2023-04-03T02:37:18;94077.78;;;23.07;28.85
43217;BME280;60511;42.686;23.300;2023-04-03T02:39:19;94074.28;;;23.06;28.80
43217;BME280;60511;42.686;23.300;2023-04-03T02:41:19;94076.19;;;23.06;28.98
43217;BME280;60511;42.686;23.300;2023-04-03T02:43:21;94071.97;;;23.05;28.83
43217;BME280;60511;42.686;23.300;2023-04-03T02:45:21;94045.81;;;22.86;28.83
43217;BME280;60511;42.686;23.300;2023-04-03T02:47:21;94052.09;;;22.94;28.91
43217;BME280;60511;42.686;23.300;2023-04-03T02:49:22;94015.13;;;22.71;28.96
43217;BME280;60511;42.686;23.300;2023-04-03T02:51:23;94039.38;;;22.94;28.83
43217;BME280;60511;42.686;23.300;2023-04-03T02:53:23;94053.28;;;22.96;28.99
43217;BME280;60511;42.686;23.300;2023-04-03T02:55:24;94029.50;;;22.79;28.87
43217;BME280;60511;42.686;23.300;2023-04-03T02:57:24;94061.56;;;23.07;29.09
43217;BME280;60511;42.686;23.300;2023-04-03T02:59:25;94018.31;;;22.77;28.90
43217;BME280;60511;42.686;23.300;2023-04-03T03:01:25;94026.91;;;22.86;28.93
43217;BME280;60511;42.686;23.300;2023-04-03T03:03:28;94028.06;;;22.85;28.99
43217;BME280;60511;42.686;23.300;2023-04-03T03:05:29;93991.88;;;22.63;29.06
43217;BME280;60511;42.686;23.300;2023-04-03T03:07:30;94060.78;;;23.06;28.93
43217;BME280;60511;42.686;23.300;2023-04-03T03:09:30;93988.28;;;22.55;28.82
43217;BME280;60511;42.686;23.300;2023-04-03T03:11:31;93988.06;;;22.64;28.85
43217;BME280;60511;42.686;23.300;2023-04-03T03:13:31;94028.84;;;22.85;28.91
43217;BME280;60511;42.686;23.300;2023-04-03T03:15:32;94053.47;;;23.07;29.07
43217;BME280;60511;42.686;23.300;2023-04-03T03:17:33;94045.38;;;23.07;29.10
43217;BME280;60511;42.686;23.300;2023-04-03T03:19:33;94010.22;;;22.77;28.98
43217;BME280;60511;42.686;23.300;2023-04-03T03:21:33;94048.09;;;23.07;28.92
43217;BME280;60511;42.686;23.300;2023-04-03T03:23:34;93977.56;;;22.59;28.80
43217;BME280;60511;42.686;23.300;2023-04-03T03:25:38;93945.34;;;22.43;28.87
43217;BME280;60511;42.686;23.300;2023-04-03T03:27:39;94040.41;;;23.09;29.24
43217;BME280;60511;42.686;23.300;2023-04-03T03:29:41;94057.38;;;23.10;28.61
43217;BME280;60511;42.686;23.300;2023-04-03T03:31:42;94051.13;;;23.05;28.76
43217;BME280;60511;42.686;23.300;2023-04-03T03:33:42;94006.13;;;22.86;28.72
43217;BME280;60511;42.686;23.300;2023-04-03T03:35:43;93986.22;;;22.72;28.72
43217;BME280;60511;42.686;23.300;2023-04-03T03:37:43;94057.38;;;23.10;28.79
43217;BME280;60511;42.686;23.300;2023-04-03T03:39:44;94046.94;;;23.08;28.91
43217;BME280;60511;42.686;23.300;2023-04-03T03:41:44;93963.53;;;22.46;28.70
43217;BME280;60511;42.686;23.300;2023-04-03T03:43:45;93921.97;;;22.24;28.86
43217;BME280;60511;42.686;23.300;2023-04-03T03:45:49;94060.06;;;23.10;28.82
43217;BME280;60511;42.686;23.300;2023-04-03T03:47:50;94043.03;;;23.05;28.45
43217;BME280;60511;42.686;23.300;2023-04-03T03:49:50;93981.09;;;22.63;28.58
43217;BME280;60511;42.686;23.300;2023-04-03T03:51:51;93990.44;;;22.69;28.72
43217;BME280;60511;42.686;23.300;2023-04-03T03:53:51;94056.19;;;23.07;28.65
43217;BME280;60511;42.686;23.300;2023-04-03T03:55:52;94018.38;;;22.80;28.80
43217;BME280;60511;42.686;23.300;2023-04-03T03:57:52;94073.09;;;23.04;29.04
43217;BME280;60511;42.686;23.300;2023-04-03T03:59:53;94050.97;;;22.95;28.79
43217;BME280;60511;42.686;23.300;2023-04-03T04:01:53;94058.47;;;23.05;28.57
43217;BME280;60511;42.686;23.300;2023-04-03T04:03:54;94036.66;;;22.94;28.63
43217;BME280;60511;42.686;23.300;2023-04-03T04:05:55;94004.75;;;22.73;28.72
43217;BME280;60511;42.686;23.300;2023-04-03T04:07:55;93998.19;;;22.71;28.87
43217;BME280;60511;42.686;23.300;2023-04-03T04:09:56;93927.69;;;22.22;28.67
43217;BME280;60511;42.686;23.300;2023-04-03T04:11:56;94054.97;;;23.04;28.81
43217;BME280;60511;42.686;23.300;2023-04-03T04:13:56;94017.22;;;22.81;28.80
43217;BME280;60511;42.686;23.300;2023-04-03T04:15:57;94057.66;;;23.04;29.03
43217;BME280;60511;42.686;23.300;2023-04-03T04:17:57;94072.72;;;23.05;28.90
43217;BME280;60511;42.686;23.300;2023-04-03T04:19:58;94076.19;;;23.06;29.04
43217;BME280;60511;42.686;23.300;2023-04-03T04:21:58;94078.91;;;23.06;28.52
43217;BME280;60511;42.686;23.300;2023-04-03T04:23:58;94076.19;;;23.06;28.86
43217;BME280;60511;42.686;23.300;2023-04-03T04:25:59;94064.44;;;22.95;28.95
43217;BME280;60511;42.686;23.300;2023-04-03T04:27:59;94010.41;;;22.64;29.02
43217;BME280;60511;42.686;23.300;2023-04-03T04:30:00;94063.28;;;22.96;28.69
43217;BME280;60511;42.686;23.300;2023-04-03T04:32:02;94063.06;;;23.04;28.66
43217;BME280;60511;42.686;23.300;2023-04-03T04:34:03;94064.03;;;22.93;28.69
43217;BME280;60511;42.686;23.300;2023-04-03T04:36:03;94029.56;;;22.82;28.80
43217;BME280;60511;42.686;23.300;2023-04-03T04:38:03;94048.81;;;22.81;28.99
43217;BME280;60511;42.686;23.300;2023-04-03T04:40:05;94020.47;;;22.67;28.91
43217;BME280;60511;42.686;23.300;2023-04-03T04:42:06;94090.47;;;23.06;28.79
43217;BME280;60511;42.686;23.300;2023-04-03T04:44:07;94006.31;;;22.48;28.72
43217;BME280;60511;42.686;23.300;2023-04-03T04:46:09;94056.97;;;22.84;28.79
43217;BME280;60511;42.686;23.300;2023-04-03T04:48:12;94088.94;;;23.05;28.57
43217;BME280;60511;42.686;23.300;2023-04-03T04:50:12;94054.31;;;22.88;28.75
43217;BME280;60511;42.686;23.300;2023-04-03T04:52:13;94037.47;;;22.72;28.64
43217;BME280;60511;42.686;23.300;2023-04-03T04:54:14;93988.69;;;22.31;28.72
43217;BME280;60511;42.686;23.300;2023-04-03T04:56:14;94104.72;;;23.03;28.57
43217;BME280;60511;42.686;23.300;2023-04-03T04:58:16;94087.34;;;23.04;28.49
43217;BME280;60511;42.686;23.300;2023-04-03T05:00:17;93936.44;;;21.93;28.45
43217;BME280;60511;42.686;23.300;2023-04-03T05:02:17;94057.63;;;22.78;28.70
43217;BME280;60511;42.686;23.300;2023-04-03T05:04:18;94012.06;;;22.46;28.73
43217;BME280;60511;42.686;23.300;2023-04-03T05:06:18;94096.84;;;22.95;28.69
43217;BME280;60511;42.686;23.300;2023-04-03T05:08:18;94105.91;;;23.06;28.56
43217;BME280;60511;42.686;23.300;2023-04-03T05:10:19;94111.66;;;23.04;28.59
43217;BME280;60511;42.686;23.300;2023-04-03T05:12:19;94106.41;;;22.92;28.64
43217;BME280;60511;42.686;23.300;2023-04-03T05:14:19;94084.31;;;22.83;28.45
43217;BME280;60511;42.686;23.300;2023-04-03T05:16:20;94127.84;;;23.04;28.44
43217;BME280;60511;42.686;23.300;2023-04-03T05:18:20;94124.78;;;23.06;28.63
43217;BME280;60511;42.686;23.300;2023-04-03T05:20:21;94103.78;;;22.96;28.69
43217;BME280;60511;42.686;23.300;2023-04-03T05:22:21;94080.72;;;22.75;28.74
43217;BME280;60511;42.686;23.300;2023-04-03T05:24:22;93977.56;;;22.13;28.64
43217;BME280;60511;42.686;23.300;2023-04-03T05:26:22;94069.03;;;22.67;28.63
43217;BME280;60511;42.686;23.300;2023-04-03T05:28:22;94126.38;;;23.07;28.62
43217;BME280;60511;42.686;23.300;2023-04-03T05:30:23;94067.56;;;22.74;28.55
43217;BME280;60511;42.686;23.300;2023-04-03T05:32:24;94108.41;;;22.95;28.93
43217;BME280;60511;42.686;23.300;2023-04-03T05:34:26;94021.22;;;22.41;28.83
43217;BME280;60511;42.686;23.300;2023-04-03T05:36:26;94068.38;;;22.74;28.95
43217;BME280;60511;42.686;23.300;2023-04-03T05:38:27;94125.19;;;23.08;28.72
43217;BME280;60511;42.686;23.300;2023-04-03T05:40:29;94120.16;;;23.06;28.96
43217;BME280;60511;42.686;23.300;2023-04-03T05:42:29;94083.56;;;22.86;28.95
43217;BME280;60511;42.686;23.300;2023-04-03T05:44:30;94081.63;;;22.83;28.92
43217;BME280;60511;42.686;23.300;2023-04-03T05:46:30;94122.09;;;23.06;28.53
43217;BME280;60511;42.686;23.300;2023-04-03T05:48:31;94107.13;;;23.12;28.83
43217;BME280;60511;42.686;23.300;2023-04-03T05:50:31;94027.97;;;22.55;28.82
43217;BME280;60511;42.686;23.300;2023-04-03T05:52:35;94083.16;;;22.84;28.57
43217;BME280;60511;42.686;23.300;2023-04-03T05:54:36;94023.69;;;22.50;28.57
43217;BME280;60511;42.686;23.300;2023-04-03T05:56:36;93956.00;;;22.13;28.32
43217;BME280;60511;42.686;23.300;2023-04-03T05:58:37;94107.91;;;23.13;28.36
43217;BME280;60511;42.686;23.300;2023-04-03T06:00:37;94084.59;;;23.01;28.23
43217;BME280;60511;42.686;23.300;2023-04-03T06:02:38;93963.59;;;22.26;28.35
43217;BME280;60511;42.686;23.300;2023-04-03T06:04:38;94060.91;;;22.91;28.27
43217;BME280;60511;42.686;23.300;2023-04-03T06:06:52;94104.09;;;23.14;28.32
43217;BME280;60511;42.686;23.300;2023-04-03T06:08:52;94098.69;;;23.14;28.04
43217;BME280;60511;42.686;23.300;2023-04-03T06:10:53;94040.78;;;22.84;28.19
43217;BME280;60511;42.686;23.300;2023-04-03T06:12:53;94083.88;;;23.04;28.35
43217;BME280;60511;42.686;23.300;2023-04-03T06:14:54;94081.53;;;23.02;28.25
43217;BME280;60511;42.686;23.300;2023-04-03T06:16:54;94058.31;;;22.98;28.11
43217;BME280;60511;42.686;23.300;2023-04-03T06:18:55;94052.09;;;22.94;28.15
43217;BME280;60511;42.686;23.300;2023-04-03T06:20:56;94062.28;;;23.04;28.19
43217;BME280;60511;42.686;23.300;2023-04-03T06:22:56;94001.16;;;22.65;28.15
43217;BME280;60511;42.686;23.300;2023-04-03T06:24:57;94075.94;;;23.15;28.17
43217;BME280;60511;42.686;23.300;2023-04-03T06:26:58;94071.97;;;23.05;28.05
43217;BME280;60511;42.686;23.300;2023-04-03T06:28:59;94106.03;;;23.17;28.01
43217;BME280;60511;42.686;23.300;2023-04-03T06:31:00;93949.97;;;22.19;27.95
43217;BME280;60511;42.686;23.300;2023-04-03T06:33:00;94108.75;;;23.17;28.14
43217;BME280;60511;42.686;23.300;2023-04-03T06:35:00;94009.66;;;22.64;28.24
43217;BME280;60511;42.686;23.300;2023-04-03T06:37:01;94014.56;;;22.58;28.20
43217;BME280;60511;42.686;23.300;2023-04-03T06:39:02;94099.94;;;23.20;27.97
43217;BME280;60511;42.686;23.300;2023-04-03T06:41:03;94081.59;;;23.06;28.02
43217;BME280;60511;42.686;23.300;2023-04-03T06:43:04;94100.28;;;23.18;27.82
43217;BME280;60511;42.686;23.300;2023-04-03T06:45:05;94083.38;;;22.98;27.94
43217;BME280;60511;42.686;23.300;2023-04-03T06:47:06;94041.44;;;22.78;28.05
43217;BME280;60511;42.686;23.300;2023-04-03T06:49:06;94100.22;;;23.15;28.45
43217;BME280;60511;42.686;23.300;2023-04-03T06:51:27;93930.31;;;22.19;28.50
43217;BME280;60511;42.686;23.300;2023-04-03T06:53:28;94010.84;;;22.66;28.33
43217;BME280;60511;42.686;23.300;2023-04-03T06:55:28;94077.09;;;23.14;28.52
43217;BME280;60511;42.686;23.300;2023-04-03T06:57:29;94055.56;;;22.94;28.35
43217;BME280;60511;42.686;23.300;2023-04-03T06:59:30;94058.22;;;22.91;28.52
43217;BME280;60511;42.686;23.300;2023-04-03T07:01:30;94122.09;;;23.33;28.40
43217;BME280;60511;42.686;23.300;2023-04-03T07:03:30;94027.94;;;22.78;28.39
43217;BME280;60511;42.686;23.300;2023-04-03T07:05:31;94102.28;;;23.21;28.37
43217;BME280;60511;42.686;23.300;2023-04-03T07:07:31;94115.19;;;23.35;28.06
43217;BME280;60511;42.686;23.300;2023-04-03T07:09:34;94109.78;;;23.35;28.15
43217;BME280;60511;42.686;23.300;2023-04-03T07:11:35;94025.72;;;22.83;28.65
43217;BME280;60511;42.686;23.300;2023-04-03T07:13:36;94068.09;;;23.06;28.15
43217;BME280;60511;42.686;23.300;2023-04-03T07:15:36;94033.63;;;22.96;28.42
43217;BME280;60511;42.686;23.300;2023-04-03T07:17:37;94061.09;;;23.28;28.27
43217;BME280;60511;42.686;23.300;2023-04-03T07:19:37;94064.16;;;23.26;28.09
43217;BME280;60511;42.686;23.300;2023-04-03T07:21:38;94095.97;;;23.40;28.18
43217;BME280;60511;42.686;23.300;2023-04-03T07:23:39;94095.63;;;23.42;28.14
43217;BME280;60511;42.686;23.300;2023-04-03T07:25:44;94084.44;;;23.43;27.95
43217;BME280;60511;42.686;23.300;2023-04-03T07:27:44;94087.53;;;23.42;28.38
43217;BME280;60511;42.686;23.300;2023-04-03T07:29:45;94056.00;;;23.23;28.02
43217;BME280;60511;42.686;23.300;2023-04-03T07:31:48;94092.94;;;23.45;28.15
43217;BME280;60511;42.686;23.300;2023-04-03T07:33:49;94089.13;;;23.46;28.06
43217;BME280;60511;42.686;23.300;2023-04-03T07:35:52;94093.38;;;23.47;28.10
43217;BME280;60511;42.686;23.300;2023-04-03T07:37:52;94013.63;;;23.00;28.07
43217;BME280;60511;42.686;23.300;2023-04-03T07:39:53;94087.25;;;23.51;27.95
43217;BME280;60511;42.686;23.300;2023-04-03T07:41:55;94078.38;;;23.50;27.94
43217;BME280;60511;42.686;23.300;2023-04-03T07:43:56;93988.06;;;22.91;28.03
43217;BME280;60511;42.686;23.300;2023-04-03T07:45:56;93967.06;;;22.77;28.27
43217;BME280;60511;42.686;23.300;2023-04-03T07:47:57;94031.06;;;23.33;28.06
43217;BME280;60511;42.686;23.300;2023-04-03T07:49:57;93949.75;;;22.81;28.03
43217;BME280;60511;42.686;23.300;2023-04-03T07:51:58;94008.91;;;23.20;27.99
43217;BME280;60511;42.686;23.300;2023-04-03T07:53:58;94053.25;;;23.46;27.99
43217;BME280;60511;42.686;23.300;2023-04-03T07:55:59;94085.03;;;23.60;28.25
43217;BME280;60511;42.686;23.300;2023-04-03T07:58:00;94021.47;;;23.36;28.16
43217;BME280;60511;42.686;23.300;2023-04-03T08:00:01;93977.97;;;23.14;28.00
43217;BME280;60511;42.686;23.300;2023-04-03T08:02:01;94056.88;;;23.61;28.29
43217;BME280;60511;42.686;23.300;2023-04-03T08:04:04;93996.28;;;23.28;28.14
43217;BME280;60511;42.686;23.300;2023-04-03T08:06:07;94049.97;;;23.63;27.90
43217;BME280;60511;42.686;23.300;2023-04-03T08:08:11;94030.94;;;23.53;28.11
43217;BME280;60511;42.686;23.300;2023-04-03T08:10:12;93974.94;;;23.16;28.00
43217;BME280;60511;42.686;23.300;2023-04-03T08:12:12;94014.84;;;23.33;27.97
43217;BME280;60511;42.686;23.300;2023-04-03T08:14:14;93978.81;;;23.18;27.90
43217;BME280;60511;42.686;23.300;2023-04-03T08:16:20;93968.75;;;23.15;27.99
43217;BME280;60511;42.686;23.300;2023-04-03T08:18:22;93997.16;;;23.36;28.17
43217;BME280;60511;42.686;23.300;2023-04-03T08:20:24;94053.88;;;23.66;27.95
43217;BME280;60511;42.686;23.300;2023-04-03T08:22:26;94053.13;;;23.69;27.93
43217;BME280;60511;42.686;23.300;2023-04-03T08:24:26;93940.47;;;23.05;28.07
43217;BME280;60511;42.686;23.300;2023-04-03T08:26:27;94002.28;;;23.44;27.83
43217;BME280;60511;42.686;23.300;2023-04-03T08:28:27;94046.59;;;23.70;28.13
43217;BME280;60511;42.686;23.300;2023-04-03T08:30:28;94034.50;;;23.60;27.83
43217;BME280;60511;42.686;23.300;2023-04-03T08:32:28;94035.28;;;23.61;27.94
43217;BME280;60511;42.686;23.300;2023-04-03T08:34:30;94046.19;;;23.72;27.94
43217;BME280;60511;42.686;23.300;2023-04-03T08:36:34;94048.13;;;23.71;27.80
43217;BME280;60511;42.686;23.300;2023-04-03T08:38:35;93837.88;;;22.41;27.94
43217;BME280;60511;42.686;23.300;2023-04-03T08:40:38;94030.78;;;23.72;27.79
43217;BME280;60511;42.686;23.300;2023-04-03T08:49:57;94017.31;;;23.76;27.97
43217;BME280;60511;42.686;23.300;2023-04-03T08:52:10;94031.97;;;23.75;27.93
43217;BME280;60511;42.686;23.300;2023-04-03T08:54:23;94005.59;;;23.64;27.87
43217;BME280;60511;42.686;23.300;2023-04-03T08:56:24;93885.13;;;22.89;27.74
43217;BME280;60511;42.686;23.300;2023-04-03T08:58:30;94025.06;;;23.77;27.75
43217;BME280;60511;42.686;23.300;2023-04-03T09:02:56;94002.19;;;23.71;27.70
43217;BME280;60511;42.686;23.300;2023-04-03T09:04:56;94007.34;;;23.80;27.61
43217;BME280;60511;42.686;23.300;2023-04-03T09:07:31;93997.72;;;23.82;27.83
43217;BME280;60511;42.686;23.300;2023-04-03T09:09:40;93963.34;;;23.49;27.57
43217;BME280;60511;42.686;23.300;2023-04-03T09:14:01;93996.22;;;23.85;27.90
43217;BME280;60511;42.686;23.300;2023-04-03T09:16:11;93994.22;;;23.82;27.62
43217;BME280;60511;42.686;23.300;2023-04-03T09:18:30;93984.47;;;23.74;27.78
43217;BME280;60511;42.686;23.300;2023-04-03T09:22:48;93948.06;;;23.60;27.79
43217;BME280;60511;42.686;23.300;2023-04-03T09:25:13;93957.38;;;23.66;27.71
43217;BME280;60511;42.686;23.300;2023-04-03T09:27:14;93899.13;;;23.32;27.93
43217;BME280;60511;42.686;23.300;2023-04-03T09:29:19;93962.44;;;23.72;27.95
43217;BME280;60511;42.686;23.300;2023-04-03T09:31:23;93974.94;;;23.83;27.66
43217;BME280;60511;42.686;23.300;2023-04-03T09:33:23;93737.81;;;22.20;27.92
43217;BME280;60511;42.686;23.300;2023-04-03T09:35:32;93890.25;;;23.31;27.68
43217;BME280;60511;42.686;23.300;2023-04-03T09:37:45;93978.81;;;23.82;27.73
43217;BME280;60511;42.686;23.300;2023-04-03T09:39:53;93902.31;;;23.41;27.94
43217;BME280;60511;42.686;23.300;2023-04-03T09:42:05;93950.50;;;23.73;27.93
43217;BME280;60511;42.686;23.300;2023-04-03T09:44:52;93903.94;;;23.49;27.75
43217;BME280;60511;42.686;23.300;2023-04-03T09:46:45;93906.72;;;23.56;27.82
43217;BME280;60511;42.686;23.300;2023-04-03T09:48:55;93958.41;;;23.89;27.57
43217;BME280;60511;42.686;23.300;2023-04-03T09:50:59;93881.78;;;23.33;27.60
43217;BME280;60511;42.686;23.300;2023-04-03T09:53:05;93946.84;;;23.92;27.69
43217;BME280;60511;42.686;23.300;2023-04-03T09:55:08;93949.56;;;23.92;27.79
43217;BME280;60511;42.686;23.300;2023-04-03T09:57:14;93948.00;;;23.91;27.58
43217;BME280;60511;42.686;23.300;2023-04-03T09:59:15;93949.91;;;23.90;28.01
43217;BME280;60511;42.686;23.300;2023-04-03T10:01:33;93943.75;;;23.90;27.75
43217;BME280;60511;42.686;23.300;2023-04-03T10:03:35;93945.28;;;23.87;27.54
43217;BME280;60511;42.686;23.300;2023-04-03T10:05:38;93947.56;;;23.85;27.63
43217;BME280;60511;42.686;23.300;2023-04-03T10:07:39;93955.25;;;23.83;27.68
43217;BME280;60511;42.686;23.300;2023-04-03T10:09:40;93945.59;;;23.82;27.47
43217;BME280;60511;42.686;23.300;2023-04-03T10:14:16;93950.97;;;23.78;27.54
43217;BME280;60511;42.686;23.300;2023-04-03T10:16:32;93917.94;;;23.58;27.97
43217;BME280;60511;42.686;23.300;2023-04-03T10:21:48;93939.38;;;23.78;27.47
43217;BME280;60511;42.686;23.300;2023-04-03T10:34:05;93889.25;;;23.46;27.75
43217;BME280;60511;42.686;23.300;2023-04-03T10:36:17;93805.03;;;23.00;27.58
43217;BME280;60511;42.686;23.300;2023-04-03T10:38:57;93883.78;;;23.39;27.64
43217;BME280;60511;42.686;23.300;2023-04-03T10:46:35;93831.81;;;23.12;27.81
43217;BME280;60511;42.686;23.300;2023-04-03T10:48:39;93907.19;;;23.65;27.69
43217;BME280;60511;42.686;23.300;2023-04-03T10:50:52;93909.47;;;23.63;27.88
43217;BME280;60511;42.686;23.300;2023-04-03T10:53:03;93873.38;;;23.41;28.02
43217;BME280;60511;42.686;23.300;2023-04-03T10:57:23;93896.53;;;23.42;27.95
43217;BME280;60511;42.686;23.300;2023-04-03T10:59:30;93910.25;;;23.60;27.85
43217;BME280;60511;42.686;23.300;2023-04-03T11:01:37;93914.06;;;23.59;27.81
43217;BME280;60511;42.686;23.300;2023-04-03T11:04:02;93874.50;;;23.37;27.85
43217;BME280;60511;42.686;23.300;2023-04-03T11:06:07;93915.59;;;23.57;28.14
43217;BME280;60511;42.686;23.300;2023-04-03T11:08:28;93848.47;;;23.18;27.77
43217;BME280;60511;42.686;23.300;2023-04-03T11:10:37;93905.50;;;23.50;27.69
43217;BME280;60511;42.686;23.300;2023-04-03T11:12:47;93833.59;;;23.01;28.09
43217;BME280;60511;42.686;23.300;2023-04-03T11:14:50;93864.28;;;23.19;28.10
43217;BME280;60511;42.686;23.300;2023-04-03T11:19:22;93922.13;;;23.52;28.01
43217;BME280;60511;42.686;23.300;2023-04-03T11:23:31;93862.00;;;23.21;27.92
43217;BME280;60511;42.686;23.300;2023-04-03T11:25:36;93914.03;;;23.52;28.17
43217;BME280;60511;42.686;23.300;2023-04-03T11:27:43;93875.41;;;23.14;27.99